Strona główna
METAR-TAF:

METAR-TAF

Lotnisko :

Port lotniczy Kair

Kair, Egipt

Szerokość geograficzna: 30-08N, Długość geograficzna: 031-24E, wysokość: 64 m

Aktualna obserwacja pogody

Raport powstał 19 minut temu, godzina 00:30 UTC
Wiatr 6 kt od północ
Temperatura 24°C
Wilgotność 89%
Ciśnienie 1013 hPa
Widzialność: 6000 m

METAR: HECA 260030Z 01006KT 6000 NSC 24/22 Q1013 NOSIG

czas: 02:49 (00:49 UTC)

Prognoza

Raport powstał 1 godzina i 49 minut temu, godzina 23:00 UTC
Prognoza ważna od 26 godzina 00 UTC do 27 godzina 06 UTC
Wiatr 8 kt od północ
Widzialność 10 km lub więcej
Brak chmur poniżej 1500 m i brak chmur cumulonimbus
Przejściowo
od 26 godzina 00 UTC do 26 godzina 08 UTC
Wiatr 3 kt z kierunków zmiennych
Widzialność: 4000 m
Rozproszone chmury na wysokości 2500 ft
zamglenie
Prawdopodobieństwo 40%
od 26 godzina 03 UTC do 26 godzina 07 UTC
Widzialność: 2000 m

TAF: HECA 252300Z 2600/2706 35008KT CAVOK TEMPO 2600/2608 VRB03KT 4000 BR SCT025 PROB40 2603/2607 2000

Obserwacja i prognoza pogody dla ponad 4000 lotnisk (raport METAR i TAF).

Dostępne stacje oznaczono żółtymi i czerwonymi punktami na mapie.

Najedź kursorem aby zobaczyć nazwę stacji.

Kliknij aby zobaczyć obserwacje i prognozy pogody.

Aby zmienić mapę: kliknij na zielony przycisk z czarnym krzyżykiem, aby powiększyć; na zielony przycisk z myślnikiem, aby pomniejszyć; na zielone strzałki, aby przejść do map sąsiednich.


METAR-TAF: